sensor_id;sensor_type;location;lat;lon;timestamp;P1;durP1;ratioP1;P2;durP2;ratioP2
16880;SDS011;8557;52.068;5.198;2022-09-01T00:01:50;1.50;;;1.40;;
16880;SDS011;8557;52.068;5.198;2022-09-01T00:04:20;4.82;;;1.83;;
16880;SDS011;8557;52.068;5.198;2022-09-01T00:06:51;2.67;;;1.60;;
16880;SDS011;8557;52.068;5.198;2022-09-01T00:09:20;1.60;;;1.50;;
16880;SDS011;8557;52.068;5.198;2022-09-01T00:11:49;4.28;;;1.60;;
16880;SDS011;8557;52.068;5.198;2022-09-01T00:14:17;1.80;;;1.65;;
16880;SDS011;8557;52.068;5.198;2022-09-01T00:16:45;2.78;;;1.88;;
16880;SDS011;8557;52.068;5.198;2022-09-01T00:19:12;2.55;;;1.90;;
16880;SDS011;8557;52.068;5.198;2022-09-01T00:21:41;1.90;;;1.63;;
16880;SDS011;8557;52.068;5.198;2022-09-01T00:24:09;5.50;;;1.80;;
16880;SDS011;8557;52.068;5.198;2022-09-01T00:26:37;2.72;;;1.90;;
16880;SDS011;8557;52.068;5.198;2022-09-01T00:29:05;2.50;;;1.70;;
16880;SDS011;8557;52.068;5.198;2022-09-01T00:31:32;3.97;;;1.77;;
16880;SDS011;8557;52.068;5.198;2022-09-01T00:33:59;5.63;;;2.00;;
16880;SDS011;8557;52.068;5.198;2022-09-01T00:36:26;3.97;;;1.98;;
16880;SDS011;8557;52.068;5.198;2022-09-01T00:38:55;4.18;;;2.25;;
16880;SDS011;8557;52.068;5.198;2022-09-01T00:41:23;4.80;;;2.30;;
16880;SDS011;8557;52.068;5.198;2022-09-01T00:43:52;3.60;;;2.15;;
16880;SDS011;8557;52.068;5.198;2022-09-01T00:46:21;3.65;;;2.08;;
16880;SDS011;8557;52.068;5.198;2022-09-01T00:48:50;5.20;;;2.13;;
16880;SDS011;8557;52.068;5.198;2022-09-01T00:51:20;6.03;;;2.55;;
16880;SDS011;8557;52.068;5.198;2022-09-01T00:53:48;6.50;;;2.83;;
16880;SDS011;8557;52.068;5.198;2022-09-01T00:56:16;4.78;;;2.50;;
16880;SDS011;8557;52.068;5.198;2022-09-01T00:58:44;5.72;;;2.92;;
16880;SDS011;8557;52.068;5.198;2022-09-01T01:01:11;3.63;;;2.80;;
16880;SDS011;8557;52.068;5.198;2022-09-01T01:03:38;4.63;;;2.83;;
16880;SDS011;8557;52.068;5.198;2022-09-01T01:06:07;5.32;;;3.25;;
16880;SDS011;8557;52.068;5.198;2022-09-01T01:08:35;6.15;;;2.72;;
16880;SDS011;8557;52.068;5.198;2022-09-01T01:11:06;5.55;;;3.05;;
16880;SDS011;8557;52.068;5.198;2022-09-01T01:13:50;3.67;;;2.80;;
16880;SDS011;8557;52.068;5.198;2022-09-01T01:16:21;5.25;;;3.13;;
16880;SDS011;8557;52.068;5.198;2022-09-01T01:18:49;5.75;;;2.85;;
16880;SDS011;8557;52.068;5.198;2022-09-01T01:21:19;6.28;;;3.05;;
16880;SDS011;8557;52.068;5.198;2022-09-01T01:24:08;4.35;;;2.50;;
16880;SDS011;8557;52.068;5.198;2022-09-01T01:26:47;2.85;;;2.30;;
16880;SDS011;8557;52.068;5.198;2022-09-01T01:29:14;5.40;;;2.88;;
16880;SDS011;8557;52.068;5.198;2022-09-01T01:31:41;3.83;;;2.80;;
16880;SDS011;8557;52.068;5.198;2022-09-01T01:34:08;4.82;;;2.70;;
16880;SDS011;8557;52.068;5.198;2022-09-01T01:36:36;3.95;;;2.50;;
16880;SDS011;8557;52.068;5.198;2022-09-01T01:39:06;5.40;;;2.63;;
16880;SDS011;8557;52.068;5.198;2022-09-01T01:41:36;4.72;;;2.63;;
16880;SDS011;8557;52.068;5.198;2022-09-01T01:44:04;3.30;;;2.35;;
16880;SDS011;8557;52.068;5.198;2022-09-01T01:46:32;5.25;;;2.53;;
16880;SDS011;8557;52.068;5.198;2022-09-01T01:49:01;4.18;;;2.42;;
16880;SDS011;8557;52.068;5.198;2022-09-01T01:51:29;4.57;;;2.40;;
16880;SDS011;8557;52.068;5.198;2022-09-01T01:53:57;2.50;;;1.98;;
16880;SDS011;8557;52.068;5.198;2022-09-01T01:56:29;3.05;;;2.40;;
16880;SDS011;8557;52.068;5.198;2022-09-01T01:58:59;3.08;;;1.88;;
16880;SDS011;8557;52.068;5.198;2022-09-01T02:01:27;3.25;;;2.00;;
16880;SDS011;8557;52.068;5.198;2022-09-01T02:03:56;3.45;;;2.38;;
16880;SDS011;8557;52.068;5.198;2022-09-01T02:06:24;5.03;;;2.30;;
16880;SDS011;8557;52.068;5.198;2022-09-01T02:08:52;4.30;;;2.40;;
16880;SDS011;8557;52.068;5.198;2022-09-01T02:11:22;3.63;;;2.40;;
16880;SDS011;8557;52.068;5.198;2022-09-01T02:13:50;5.82;;;2.30;;
16880;SDS011;8557;52.068;5.198;2022-09-01T02:16:22;4.47;;;2.22;;
16880;SDS011;8557;52.068;5.198;2022-09-01T02:18:50;2.92;;;2.10;;
16880;SDS011;8557;52.068;5.198;2022-09-01T02:21:18;3.15;;;2.28;;
16880;SDS011;8557;52.068;5.198;2022-09-01T02:23:47;5.45;;;2.30;;
16880;SDS011;8557;52.068;5.198;2022-09-01T02:26:24;3.15;;;2.17;;
16880;SDS011;8557;52.068;5.198;2022-09-01T02:28:55;2.13;;;1.80;;
16880;SDS011;8557;52.068;5.198;2022-09-01T02:31:24;3.88;;;1.95;;
16880;SDS011;8557;52.068;5.198;2022-09-01T02:33:51;5.07;;;2.67;;
16880;SDS011;8557;52.068;5.198;2022-09-01T02:36:19;4.95;;;2.00;;
16880;SDS011;8557;52.068;5.198;2022-09-01T02:38:46;3.17;;;2.00;;
16880;SDS011;8557;52.068;5.198;2022-09-01T02:41:14;2.97;;;1.95;;
16880;SDS011;8557;52.068;5.198;2022-09-01T02:43:44;3.40;;;2.15;;
16880;SDS011;8557;52.068;5.198;2022-09-01T02:46:11;2.95;;;2.35;;
16880;SDS011;8557;52.068;5.198;2022-09-01T02:48:41;2.20;;;1.90;;
16880;SDS011;8557;52.068;5.198;2022-09-01T02:51:11;2.70;;;2.00;;
16880;SDS011;8557;52.068;5.198;2022-09-01T02:53:40;2.40;;;2.10;;
16880;SDS011;8557;52.068;5.198;2022-09-01T02:56:09;3.40;;;2.22;;
16880;SDS011;8557;52.068;5.198;2022-09-01T02:58:39;3.75;;;1.90;;
16880;SDS011;8557;52.068;5.198;2022-09-01T03:01:11;2.88;;;1.67;;
16880;SDS011;8557;52.068;5.198;2022-09-01T03:03:41;4.15;;;2.15;;
16880;SDS011;8557;52.068;5.198;2022-09-01T03:06:08;2.53;;;2.15;;
16880;SDS011;8557;52.068;5.198;2022-09-01T03:08:36;3.60;;;2.20;;
16880;SDS011;8557;52.068;5.198;2022-09-01T03:11:04;5.28;;;2.20;;
16880;SDS011;8557;52.068;5.198;2022-09-01T03:13:35;3.05;;;2.03;;
16880;SDS011;8557;52.068;5.198;2022-09-01T03:16:02;2.90;;;2.00;;
16880;SDS011;8557;52.068;5.198;2022-09-01T03:18:29;2.78;;;2.25;;
16880;SDS011;8557;52.068;5.198;2022-09-01T03:20:58;4.53;;;2.40;;
16880;SDS011;8557;52.068;5.198;2022-09-01T03:23:27;2.25;;;2.05;;
16880;SDS011;8557;52.068;5.198;2022-09-01T03:25:55;2.58;;;1.92;;
16880;SDS011;8557;52.068;5.198;2022-09-01T03:28:22;2.75;;;2.10;;
16880;SDS011;8557;52.068;5.198;2022-09-01T03:30:52;2.38;;;1.88;;
16880;SDS011;8557;52.068;5.198;2022-09-01T03:33:22;5.13;;;2.00;;
16880;SDS011;8557;52.068;5.198;2022-09-01T03:35:51;4.88;;;2.40;;
16880;SDS011;8557;52.068;5.198;2022-09-01T03:38:19;4.60;;;2.15;;
16880;SDS011;8557;52.068;5.198;2022-09-01T03:40:48;3.85;;;2.47;;
16880;SDS011;8557;52.068;5.198;2022-09-01T03:43:16;2.40;;;2.20;;
16880;SDS011;8557;52.068;5.198;2022-09-01T03:45:44;2.88;;;2.13;;
16880;SDS011;8557;52.068;5.198;2022-09-01T03:48:11;2.45;;;2.25;;
16880;SDS011;8557;52.068;5.198;2022-09-01T03:50:41;5.13;;;1.95;;
16880;SDS011;8557;52.068;5.198;2022-09-01T03:53:10;2.97;;;2.30;;
16880;SDS011;8557;52.068;5.198;2022-09-01T03:55:40;3.53;;;2.35;;
16880;SDS011;8557;52.068;5.198;2022-09-01T03:58:09;4.32;;;2.22;;
16880;SDS011;8557;52.068;5.198;2022-09-01T04:00:39;4.47;;;2.10;;
16880;SDS011;8557;52.068;5.198;2022-09-01T04:03:08;3.08;;;2.30;;
16880;SDS011;8557;52.068;5.198;2022-09-01T04:05:37;2.65;;;2.25;;
16880;SDS011;8557;52.068;5.198;2022-09-01T04:08:07;3.25;;;2.47;;
16880;SDS011;8557;52.068;5.198;2022-09-01T04:10:38;3.85;;;1.85;;
16880;SDS011;8557;52.068;5.198;2022-09-01T04:13:13;3.40;;;2.08;;
16880;SDS011;8557;52.068;5.198;2022-09-01T04:15:41;3.97;;;2.20;;
16880;SDS011;8557;52.068;5.198;2022-09-01T04:18:07;3.95;;;2.08;;
16880;SDS011;8557;52.068;5.198;2022-09-01T04:20:34;2.38;;;2.10;;
16880;SDS011;8557;52.068;5.198;2022-09-01T04:23:13;2.63;;;2.20;;
16880;SDS011;8557;52.068;5.198;2022-09-01T04:25:46;2.50;;;2.20;;
16880;SDS011;8557;52.068;5.198;2022-09-01T04:28:14;2.65;;;2.28;;
16880;SDS011;8557;52.068;5.198;2022-09-01T04:30:47;3.45;;;2.17;;
16880;SDS011;8557;52.068;5.198;2022-09-01T04:33:15;6.78;;;2.17;;
16880;SDS011;8557;52.068;5.198;2022-09-01T04:35:42;2.97;;;2.15;;
16880;SDS011;8557;52.068;5.198;2022-09-01T04:38:09;3.47;;;2.03;;
16880;SDS011;8557;52.068;5.198;2022-09-01T04:40:40;3.63;;;2.13;;
16880;SDS011;8557;52.068;5.198;2022-09-01T04:43:08;3.05;;;2.25;;
16880;SDS011;8557;52.068;5.198;2022-09-01T04:45:35;3.30;;;2.22;;
16880;SDS011;8557;52.068;5.198;2022-09-01T04:48:02;3.88;;;2.33;;
16880;SDS011;8557;52.068;5.198;2022-09-01T04:50:30;5.22;;;2.20;;
16880;SDS011;8557;52.068;5.198;2022-09-01T04:52:59;4.10;;;2.10;;
16880;SDS011;8557;52.068;5.198;2022-09-01T04:55:26;2.53;;;2.33;;
16880;SDS011;8557;52.068;5.198;2022-09-01T04:57:54;3.20;;;2.38;;
16880;SDS011;8557;52.068;5.198;2022-09-01T05:00:23;4.18;;;1.92;;
16880;SDS011;8557;52.068;5.198;2022-09-01T05:02:57;3.85;;;2.25;;
16880;SDS011;8557;52.068;5.198;2022-09-01T05:05:29;3.15;;;2.20;;
16880;SDS011;8557;52.068;5.198;2022-09-01T05:08:03;3.78;;;2.35;;
16880;SDS011;8557;52.068;5.198;2022-09-01T05:10:30;3.15;;;2.13;;
16880;SDS011;8557;52.068;5.198;2022-09-01T05:13:00;3.75;;;2.13;;
16880;SDS011;8557;52.068;5.198;2022-09-01T05:15:35;3.38;;;2.50;;
16880;SDS011;8557;52.068;5.198;2022-09-01T05:18:02;3.25;;;2.03;;
16880;SDS011;8557;52.068;5.198;2022-09-01T05:20:35;3.65;;;2.10;;
16880;SDS011;8557;52.068;5.198;2022-09-01T05:23:05;4.18;;;2.70;;
16880;SDS011;8557;52.068;5.198;2022-09-01T05:25:36;3.83;;;2.25;;
16880;SDS011;8557;52.068;5.198;2022-09-01T05:28:04;3.45;;;2.40;;
16880;SDS011;8557;52.068;5.198;2022-09-01T05:30:35;3.20;;;2.10;;
16880;SDS011;8557;52.068;5.198;2022-09-01T05:33:02;3.15;;;2.60;;
16880;SDS011;8557;52.068;5.198;2022-09-01T05:35:34;2.22;;;2.03;;
16880;SDS011;8557;52.068;5.198;2022-09-01T05:38:02;2.15;;;1.98;;
16880;SDS011;8557;52.068;5.198;2022-09-01T05:40:29;4.03;;;2.00;;
16880;SDS011;8557;52.068;5.198;2022-09-01T05:42:56;4.70;;;2.20;;
16880;SDS011;8557;52.068;5.198;2022-09-01T05:45:23;3.78;;;2.53;;
16880;SDS011;8557;52.068;5.198;2022-09-01T05:47:52;3.53;;;2.25;;
16880;SDS011;8557;52.068;5.198;2022-09-01T05:50:18;2.20;;;1.98;;
16880;SDS011;8557;52.068;5.198;2022-09-01T05:52:45;2.22;;;2.00;;
16880;SDS011;8557;52.068;5.198;2022-09-01T05:55:15;3.65;;;2.13;;
16880;SDS011;8557;52.068;5.198;2022-09-01T05:57:41;4.13;;;2.20;;
16880;SDS011;8557;52.068;5.198;2022-09-01T06:00:12;3.10;;;1.95;;
16880;SDS011;8557;52.068;5.198;2022-09-01T06:02:41;3.67;;;1.95;;
16880;SDS011;8557;52.068;5.198;2022-09-01T06:05:10;3.00;;;1.95;;
16880;SDS011;8557;52.068;5.198;2022-09-01T06:07:39;3.85;;;2.05;;
16880;SDS011;8557;52.068;5.198;2022-09-01T06:10:07;3.42;;;2.17;;
16880;SDS011;8557;52.068;5.198;2022-09-01T06:12:34;5.00;;;2.20;;
16880;SDS011;8557;52.068;5.198;2022-09-01T06:15:01;2.55;;;1.92;;
16880;SDS011;8557;52.068;5.198;2022-09-01T06:17:27;3.00;;;2.45;;
16880;SDS011;8557;52.068;5.198;2022-09-01T06:19:55;2.83;;;1.90;;
16880;SDS011;8557;52.068;5.198;2022-09-01T06:22:23;3.10;;;2.10;;
16880;SDS011;8557;52.068;5.198;2022-09-01T06:24:52;4.93;;;2.05;;
16880;SDS011;8557;52.068;5.198;2022-09-01T06:27:19;2.78;;;2.13;;
16880;SDS011;8557;52.068;5.198;2022-09-01T06:29:46;2.83;;;1.83;;
16880;SDS011;8557;52.068;5.198;2022-09-01T06:32:20;3.30;;;1.60;;
16880;SDS011;8557;52.068;5.198;2022-09-01T06:34:49;3.95;;;1.88;;
16880;SDS011;8557;52.068;5.198;2022-09-01T06:37:16;3.35;;;1.88;;
16880;SDS011;8557;52.068;5.198;2022-09-01T06:39:48;3.25;;;1.75;;
16880;SDS011;8557;52.068;5.198;2022-09-01T06:42:15;2.20;;;1.60;;
16880;SDS011;8557;52.068;5.198;2022-09-01T06:44:43;3.78;;;2.08;;
16880;SDS011;8557;52.068;5.198;2022-09-01T06:47:10;4.75;;;1.80;;
16880;SDS011;8557;52.068;5.198;2022-09-01T06:49:37;2.22;;;1.70;;
16880;SDS011;8557;52.068;5.198;2022-09-01T06:52:05;1.77;;;1.67;;
16880;SDS011;8557;52.068;5.198;2022-09-01T06:54:31;2.97;;;1.60;;
16880;SDS011;8557;52.068;5.198;2022-09-01T06:57:02;3.33;;;1.70;;
16880;SDS011;8557;52.068;5.198;2022-09-01T06:59:30;3.75;;;1.77;;
16880;SDS011;8557;52.068;5.198;2022-09-01T07:01:57;3.50;;;1.75;;
16880;SDS011;8557;52.068;5.198;2022-09-01T07:04:25;2.05;;;1.77;;
16880;SDS011;8557;52.068;5.198;2022-09-01T07:06:53;2.63;;;1.70;;
16880;SDS011;8557;52.068;5.198;2022-09-01T07:09:21;3.55;;;2.10;;
16880;SDS011;8557;52.068;5.198;2022-09-01T07:11:48;4.18;;;1.83;;
16880;SDS011;8557;52.068;5.198;2022-09-01T07:14:17;3.67;;;1.60;;
16880;SDS011;8557;52.068;5.198;2022-09-01T07:16:45;4.00;;;1.60;;
16880;SDS011;8557;52.068;5.198;2022-09-01T07:19:11;4.90;;;1.90;;
16880;SDS011;8557;52.068;5.198;2022-09-01T07:21:39;2.90;;;1.92;;
16880;SDS011;8557;52.068;5.198;2022-09-01T07:24:06;4.63;;;2.03;;
16880;SDS011;8557;52.068;5.198;2022-09-01T07:26:34;2.65;;;1.83;;
16880;SDS011;8557;52.068;5.198;2022-09-01T07:29:01;3.38;;;2.20;;
16880;SDS011;8557;52.068;5.198;2022-09-01T07:31:31;2.13;;;1.92;;
16880;SDS011;8557;52.068;5.198;2022-09-01T07:34:05;3.70;;;1.85;;
16880;SDS011;8557;52.068;5.198;2022-09-01T07:36:36;2.05;;;1.70;;
16880;SDS011;8557;52.068;5.198;2022-09-01T07:39:03;1.95;;;1.50;;
16880;SDS011;8557;52.068;5.198;2022-09-01T07:41:31;2.45;;;1.67;;
16880;SDS011;8557;52.068;5.198;2022-09-01T07:43:59;3.22;;;1.92;;
16880;SDS011;8557;52.068;5.198;2022-09-01T07:46:31;1.70;;;1.55;;
16880;SDS011;8557;52.068;5.198;2022-09-01T07:48:58;2.38;;;1.63;;
16880;SDS011;8557;52.068;5.198;2022-09-01T07:51:27;2.75;;;1.55;;
16880;SDS011;8557;52.068;5.198;2022-09-01T07:53:56;5.25;;;1.60;;
16880;SDS011;8557;52.068;5.198;2022-09-01T07:56:26;4.35;;;1.55;;
16880;SDS011;8557;52.068;5.198;2022-09-01T07:58:55;4.00;;;1.80;;
16880;SDS011;8557;52.068;5.198;2022-09-01T08:01:23;5.65;;;1.52;;
16880;SDS011;8557;52.068;5.198;2022-09-01T08:03:54;5.03;;;1.38;;
16880;SDS011;8557;52.068;5.198;2022-09-01T08:06:23;3.47;;;1.40;;
16880;SDS011;8557;52.068;5.198;2022-09-01T08:08:51;4.95;;;1.50;;
16880;SDS011;8557;52.068;5.198;2022-09-01T08:11:20;2.72;;;1.48;;
16880;SDS011;8557;52.068;5.198;2022-09-01T08:13:49;2.88;;;1.20;;
16880;SDS011;8557;52.068;5.198;2022-09-01T08:16:16;2.92;;;1.30;;
16880;SDS011;8557;52.068;5.198;2022-09-01T08:18:43;2.95;;;1.13;;
16880;SDS011;8557;52.068;5.198;2022-09-01T08:21:13;6.60;;;1.42;;
16880;SDS011;8557;52.068;5.198;2022-09-01T08:23:40;2.75;;;1.25;;
16880;SDS011;8557;52.068;5.198;2022-09-01T08:26:08;1.13;;;0.95;;
16880;SDS011;8557;52.068;5.198;2022-09-01T08:28:36;1.08;;;0.93;;
16880;SDS011;8557;52.068;5.198;2022-09-01T08:31:05;3.63;;;1.30;;
16880;SDS011;8557;52.068;5.198;2022-09-01T08:33:33;1.65;;;1.27;;
16880;SDS011;8557;52.068;5.198;2022-09-01T08:35:59;2.90;;;1.10;;
16880;SDS011;8557;52.068;5.198;2022-09-01T08:38:28;4.53;;;1.10;;
16880;SDS011;8557;52.068;5.198;2022-09-01T08:40:56;1.85;;;1.02;;
16880;SDS011;8557;52.068;5.198;2022-09-01T08:43:26;3.47;;;1.10;;
16880;SDS011;8557;52.068;5.198;2022-09-01T08:46:03;2.35;;;1.00;;
16880;SDS011;8557;52.068;5.198;2022-09-01T08:48:36;3.00;;;1.20;;
16880;SDS011;8557;52.068;5.198;2022-09-01T08:51:09;4.45;;;1.00;;
16880;SDS011;8557;52.068;5.198;2022-09-01T08:53:42;3.53;;;1.00;;
16880;SDS011;8557;52.068;5.198;2022-09-01T08:56:14;3.75;;;1.10;;
16880;SDS011;8557;52.068;5.198;2022-09-01T08:58:44;2.80;;;0.80;;
16880;SDS011;8557;52.068;5.198;2022-09-01T09:01:16;1.50;;;1.20;;
16880;SDS011;8557;52.068;5.198;2022-09-01T09:03:55;3.10;;;0.90;;
16880;SDS011;8557;52.068;5.198;2022-09-01T09:06:33;5.10;;;1.20;;
16880;SDS011;8557;52.068;5.198;2022-09-01T09:09:05;2.80;;;1.20;;
16880;SDS011;8557;52.068;5.198;2022-09-01T09:11:40;3.63;;;1.27;;
16880;SDS011;8557;52.068;5.198;2022-09-01T09:14:18;2.17;;;0.90;;
16880;SDS011;8557;52.068;5.198;2022-09-01T09:16:57;3.17;;;1.00;;
16880;SDS011;8557;52.068;5.198;2022-09-01T09:19:25;1.73;;;0.88;;
16880;SDS011;8557;52.068;5.198;2022-09-01T09:21:55;2.45;;;1.40;;
16880;SDS011;8557;52.068;5.198;2022-09-01T09:24:27;3.22;;;1.00;;
16880;SDS011;8557;52.068;5.198;2022-09-01T09:27:11;2.03;;;1.05;;
16880;SDS011;8557;52.068;5.198;2022-09-01T09:29:44;2.08;;;0.80;;
16880;SDS011;8557;52.068;5.198;2022-09-01T09:32:11;2.03;;;1.10;;
16880;SDS011;8557;52.068;5.198;2022-09-01T09:34:39;2.92;;;1.15;;
16880;SDS011;8557;52.068;5.198;2022-09-01T09:37:16;5.07;;;1.00;;
16880;SDS011;8557;52.068;5.198;2022-09-01T09:40:02;1.88;;;1.02;;
16880;SDS011;8557;52.068;5.198;2022-09-01T09:42:32;1.85;;;0.93;;
16880;SDS011;8557;52.068;5.198;2022-09-01T09:45:00;2.83;;;0.90;;
16880;SDS011;8557;52.068;5.198;2022-09-01T09:47:36;2.22;;;1.10;;
16880;SDS011;8557;52.068;5.198;2022-09-01T09:50:10;3.85;;;0.90;;
16880;SDS011;8557;52.068;5.198;2022-09-01T09:52:39;4.47;;;1.10;;
16880;SDS011;8557;52.068;5.198;2022-09-01T09:55:17;3.63;;;0.90;;
16880;SDS011;8557;52.068;5.198;2022-09-01T09:57:48;2.80;;;1.10;;
16880;SDS011;8557;52.068;5.198;2022-09-01T10:00:17;1.35;;;0.90;;
16880;SDS011;8557;52.068;5.198;2022-09-01T10:02:50;1.98;;;0.77;;
16880;SDS011;8557;52.068;5.198;2022-09-01T10:05:26;1.92;;;0.90;;
16880;SDS011;8557;52.068;5.198;2022-09-01T10:07:58;2.33;;;0.90;;
16880;SDS011;8557;52.068;5.198;2022-09-01T10:10:35;1.67;;;0.93;;
16880;SDS011;8557;52.068;5.198;2022-09-01T10:13:04;2.40;;;0.82;;
16880;SDS011;8557;52.068;5.198;2022-09-01T10:15:34;1.98;;;0.90;;
16880;SDS011;8557;52.068;5.198;2022-09-01T10:18:03;1.77;;;0.88;;
16880;SDS011;8557;52.068;5.198;2022-09-01T10:20:32;3.53;;;1.00;;
16880;SDS011;8557;52.068;5.198;2022-09-01T10:23:02;2.63;;;1.00;;
16880;SDS011;8557;52.068;5.198;2022-09-01T10:25:30;0.80;;;0.80;;
16880;SDS011;8557;52.068;5.198;2022-09-01T10:28:01;2.78;;;0.90;;
16880;SDS011;8557;52.068;5.198;2022-09-01T10:30:35;1.33;;;0.70;;
16880;SDS011;8557;52.068;5.198;2022-09-01T10:33:07;1.92;;;0.80;;
16880;SDS011;8557;52.068;5.198;2022-09-01T10:35:35;2.05;;;0.90;;
16880;SDS011;8557;52.068;5.198;2022-09-01T10:38:05;1.80;;;0.98;;
16880;SDS011;8557;52.068;5.198;2022-09-01T10:40:37;0.95;;;0.60;;
16880;SDS011;8557;52.068;5.198;2022-09-01T10:48:58;1.00;;;0.68;;
16880;SDS011;8557;52.068;5.198;2022-09-01T10:51:41;1.30;;;0.70;;
16880;SDS011;8557;52.068;5.198;2022-09-01T10:57:18;1.15;;;0.70;;
16880;SDS011;8557;52.068;5.198;2022-09-01T11:00:00;1.88;;;0.90;;
16880;SDS011;8557;52.068;5.198;2022-09-01T11:05:58;1.77;;;0.65;;
16880;SDS011;8557;52.068;5.198;2022-09-01T11:08:39;3.97;;;0.90;;
16880;SDS011;8557;52.068;5.198;2022-09-01T11:11:09;2.67;;;0.90;;
16880;SDS011;8557;52.068;5.198;2022-09-01T11:13:48;1.35;;;0.80;;
16880;SDS011;8557;52.068;5.198;2022-09-01T11:16:28;2.95;;;0.70;;
16880;SDS011;8557;52.068;5.198;2022-09-01T11:22:02;1.20;;;1.00;;
16880;SDS011;8557;52.068;5.198;2022-09-01T11:24:49;2.03;;;0.95;;
16880;SDS011;8557;52.068;5.198;2022-09-01T11:30:29;1.92;;;0.85;;
16880;SDS011;8557;52.068;5.198;2022-09-01T11:33:02;2.00;;;0.98;;
16880;SDS011;8557;52.068;5.198;2022-09-01T11:35:42;3.25;;;0.80;;
16880;SDS011;8557;52.068;5.198;2022-09-01T11:38:11;1.10;;;0.90;;
16880;SDS011;8557;52.068;5.198;2022-09-01T11:40:41;2.47;;;1.02;;
16880;SDS011;8557;52.068;5.198;2022-09-01T11:43:08;1.88;;;0.90;;
16880;SDS011;8557;52.068;5.198;2022-09-01T11:45:41;2.78;;;0.82;;
16880;SDS011;8557;52.068;5.198;2022-09-01T11:48:15;2.67;;;0.70;;
16880;SDS011;8557;52.068;5.198;2022-09-01T11:50:43;3.45;;;0.85;;
16880;SDS011;8557;52.068;5.198;2022-09-01T11:53:11;0.70;;;0.70;;
16880;SDS011;8557;52.068;5.198;2022-09-01T11:55:41;3.65;;;0.80;;
16880;SDS011;8557;52.068;5.198;2022-09-01T11:58:10;0.77;;;0.70;;
16880;SDS011;8557;52.068;5.198;2022-09-01T12:00:40;0.77;;;0.77;;
16880;SDS011;8557;52.068;5.198;2022-09-01T12:03:18;1.27;;;0.63;;
16880;SDS011;8557;52.068;5.198;2022-09-01T12:05:46;1.75;;;0.60;;
16880;SDS011;8557;52.068;5.198;2022-09-01T12:08:18;2.25;;;0.60;;
16880;SDS011;8557;52.068;5.198;2022-09-01T12:10:46;0.93;;;0.60;;
16880;SDS011;8557;52.068;5.198;2022-09-01T12:13:16;2.90;;;0.70;;
16880;SDS011;8557;52.068;5.198;2022-09-01T12:15:52;1.38;;;0.70;;
16880;SDS011;8557;52.068;5.198;2022-09-01T12:18:22;3.72;;;0.80;;
16880;SDS011;8557;52.068;5.198;2022-09-01T12:20:53;1.67;;;0.68;;
16880;SDS011;8557;52.068;5.198;2022-09-01T12:23:23;0.70;;;0.70;;
16880;SDS011;8557;52.068;5.198;2022-09-01T12:25:52;5.70;;;0.70;;
16880;SDS011;8557;52.068;5.198;2022-09-01T12:28:20;1.85;;;0.63;;
16880;SDS011;8557;52.068;5.198;2022-09-01T12:30:48;0.98;;;0.65;;
16880;SDS011;8557;52.068;5.198;2022-09-01T12:33:18;1.17;;;0.57;;
16880;SDS011;8557;52.068;5.198;2022-09-01T12:35:46;0.98;;;0.60;;
16880;SDS011;8557;52.068;5.198;2022-09-01T12:38:20;1.13;;;0.57;;
16880;SDS011;8557;52.068;5.198;2022-09-01T12:40:49;3.38;;;0.60;;
16880;SDS011;8557;52.068;5.198;2022-09-01T12:43:29;2.97;;;0.57;;
16880;SDS011;8557;52.068;5.198;2022-09-01T12:45:59;1.20;;;0.55;;
16880;SDS011;8557;52.068;5.198;2022-09-01T12:48:30;2.00;;;0.70;;
16880;SDS011;8557;52.068;5.198;2022-09-01T12:50:59;1.30;;;0.60;;
16880;SDS011;8557;52.068;5.198;2022-09-01T12:53:29;1.05;;;0.70;;
16880;SDS011;8557;52.068;5.198;2022-09-01T12:59:02;2.88;;;0.90;;
16880;SDS011;8557;52.068;5.198;2022-09-01T13:01:33;0.68;;;0.52;;
16880;SDS011;8557;52.068;5.198;2022-09-01T13:04:23;2.05;;;0.70;;
16880;SDS011;8557;52.068;5.198;2022-09-01T13:06:52;1.40;;;0.80;;
16880;SDS011;8557;52.068;5.198;2022-09-01T13:09:20;2.15;;;0.80;;
16880;SDS011;8557;52.068;5.198;2022-09-01T13:11:47;3.08;;;0.88;;
16880;SDS011;8557;52.068;5.198;2022-09-01T13:14:14;3.08;;;0.63;;
16880;SDS011;8557;52.068;5.198;2022-09-01T13:16:41;2.95;;;0.80;;
16880;SDS011;8557;52.068;5.198;2022-09-01T13:19:08;2.20;;;0.70;;
16880;SDS011;8557;52.068;5.198;2022-09-01T13:21:36;1.02;;;0.75;;
16880;SDS011;8557;52.068;5.198;2022-09-01T13:24:03;1.20;;;0.57;;
16880;SDS011;8557;52.068;5.198;2022-09-01T13:26:31;3.08;;;0.90;;
16880;SDS011;8557;52.068;5.198;2022-09-01T13:28:59;1.98;;;0.98;;
16880;SDS011;8557;52.068;5.198;2022-09-01T13:31:26;1.88;;;0.70;;
16880;SDS011;8557;52.068;5.198;2022-09-01T13:33:54;0.90;;;0.50;;
16880;SDS011;8557;52.068;5.198;2022-09-01T13:36:20;2.60;;;0.73;;
16880;SDS011;8557;52.068;5.198;2022-09-01T13:38:49;0.63;;;0.63;;
16880;SDS011;8557;52.068;5.198;2022-09-01T13:41:16;1.98;;;0.82;;
16880;SDS011;8557;52.068;5.198;2022-09-01T13:43:43;1.60;;;0.52;;
16880;SDS011;8557;52.068;5.198;2022-09-01T13:46:11;3.63;;;0.90;;
16880;SDS011;8557;52.068;5.198;2022-09-01T13:48:38;2.85;;;0.90;;
16880;SDS011;8557;52.068;5.198;2022-09-01T13:51:04;1.55;;;0.70;;
16880;SDS011;8557;52.068;5.198;2022-09-01T13:53:31;2.45;;;0.57;;
16880;SDS011;8557;52.068;5.198;2022-09-01T13:55:59;1.35;;;0.80;;
16880;SDS011;8557;52.068;5.198;2022-09-01T13:58:26;2.25;;;0.60;;
16880;SDS011;8557;52.068;5.198;2022-09-01T14:00:53;2.78;;;0.70;;
16880;SDS011;8557;52.068;5.198;2022-09-01T14:03:23;4.22;;;0.70;;
16880;SDS011;8557;52.068;5.198;2022-09-01T14:05:50;2.67;;;0.75;;
16880;SDS011;8557;52.068;5.198;2022-09-01T14:08:18;2.60;;;0.70;;
16880;SDS011;8557;52.068;5.198;2022-09-01T14:10:47;3.00;;;0.70;;
16880;SDS011;8557;52.068;5.198;2022-09-01T14:13:17;1.92;;;0.73;;
16880;SDS011;8557;52.068;5.198;2022-09-01T14:15:45;3.58;;;0.60;;
16880;SDS011;8557;52.068;5.198;2022-09-01T14:18:13;2.10;;;0.68;;
16880;SDS011;8557;52.068;5.198;2022-09-01T14:20:41;2.00;;;0.75;;
16880;SDS011;8557;52.068;5.198;2022-09-01T14:23:09;2.60;;;0.75;;
16880;SDS011;8557;52.068;5.198;2022-09-01T14:25:40;3.55;;;0.63;;
16880;SDS011;8557;52.068;5.198;2022-09-01T14:28:08;1.67;;;0.60;;
16880;SDS011;8557;52.068;5.198;2022-09-01T14:30:36;3.22;;;0.70;;
16880;SDS011;8557;52.068;5.198;2022-09-01T14:33:06;2.50;;;0.60;;
16880;SDS011;8557;52.068;5.198;2022-09-01T14:35:35;2.08;;;0.73;;
16880;SDS011;8557;52.068;5.198;2022-09-01T14:38:03;5.90;;;0.93;;
16880;SDS011;8557;52.068;5.198;2022-09-01T14:40:31;2.33;;;0.80;;
16880;SDS011;8557;52.068;5.198;2022-09-01T14:43:00;3.80;;;0.68;;
16880;SDS011;8557;52.068;5.198;2022-09-01T14:45:26;2.10;;;0.82;;
16880;SDS011;8557;52.068;5.198;2022-09-01T14:47:56;2.58;;;0.70;;
16880;SDS011;8557;52.068;5.198;2022-09-01T14:50:24;1.90;;;0.60;;
16880;SDS011;8557;52.068;5.198;2022-09-01T14:52:53;4.50;;;0.80;;
16880;SDS011;8557;52.068;5.198;2022-09-01T14:55:21;2.03;;;0.70;;
16880;SDS011;8557;52.068;5.198;2022-09-01T14:57:49;2.05;;;0.52;;
16880;SDS011;8557;52.068;5.198;2022-09-01T15:00:17;4.13;;;0.73;;
16880;SDS011;8557;52.068;5.198;2022-09-01T15:02:44;1.10;;;0.60;;
16880;SDS011;8557;52.068;5.198;2022-09-01T15:05:13;1.95;;;0.88;;
16880;SDS011;8557;52.068;5.198;2022-09-01T15:07:40;1.73;;;0.60;;
16880;SDS011;8557;52.068;5.198;2022-09-01T15:10:08;1.25;;;0.50;;
16880;SDS011;8557;52.068;5.198;2022-09-01T15:12:36;3.05;;;0.52;;
16880;SDS011;8557;52.068;5.198;2022-09-01T15:15:04;0.85;;;0.60;;
16880;SDS011;8557;52.068;5.198;2022-09-01T15:17:32;1.35;;;0.50;;
16880;SDS011;8557;52.068;5.198;2022-09-01T15:19:59;1.95;;;0.70;;
16880;SDS011;8557;52.068;5.198;2022-09-01T15:22:48;3.90;;;0.70;;
16880;SDS011;8557;52.068;5.198;2022-09-01T15:25:15;7.55;;;1.50;;
16880;SDS011;8557;52.068;5.198;2022-09-01T15:27:42;4.10;;;0.90;;
16880;SDS011;8557;52.068;5.198;2022-09-01T15:30:11;2.10;;;0.90;;
16880;SDS011;8557;52.068;5.198;2022-09-01T15:32:41;1.92;;;0.85;;
16880;SDS011;8557;52.068;5.198;2022-09-01T15:35:08;3.85;;;0.80;;
16880;SDS011;8557;52.068;5.198;2022-09-01T15:37:35;1.65;;;0.50;;